createdAt,value
2022-08-10T00:01:51.196Z,100.00
2022-08-10T00:05:09.095Z,100.00
2022-08-10T00:08:25.887Z,100.00
2022-08-10T00:11:41.983Z,100.00
2022-08-10T00:14:58.145Z,100.00
2022-08-10T00:18:34.257Z,100.00
2022-08-10T00:21:32.694Z,100.00
2022-08-10T00:24:48.837Z,100.00
2022-08-10T00:28:04.953Z,100.00
2022-08-10T00:31:21.095Z,100.00
2022-08-10T00:34:38.378Z,100.00
2022-08-10T00:37:57.856Z,100.00
2022-08-10T00:41:12.810Z,100.00
2022-08-10T00:44:29.004Z,100.00
2022-08-10T00:47:45.135Z,100.00
2022-08-10T00:51:01.549Z,100.00
2022-08-10T00:54:24.007Z,100.00
2022-08-10T00:57:36.370Z,100.00
2022-08-10T01:00:53.623Z,100.00
2022-08-10T01:04:57.185Z,100.00
2022-08-10T01:07:53.087Z,100.00
2022-08-10T01:12:34.203Z,100.00
2022-08-10T01:14:38.896Z,100.00
2022-08-10T01:18:03.401Z,100.00
2022-08-10T01:22:17.048Z,100.00
2022-08-10T01:26:12.348Z,100.00
2022-08-10T01:29:59.658Z,100.00
2022-08-10T01:33:31.615Z,100.00
2022-08-10T01:36:47.240Z,100.00
2022-08-10T01:40:07.166Z,100.00
2022-08-10T01:43:25.965Z,100.00
2022-08-10T01:46:45.006Z,100.00
2022-08-10T01:50:06.148Z,100.00
2022-08-10T01:53:27.826Z,100.00
2022-08-10T01:56:49.098Z,100.00
2022-08-10T02:00:08.708Z,100.00
2022-08-10T02:03:27.162Z,100.00
2022-08-10T02:06:48.377Z,100.00
2022-08-10T02:10:10.041Z,100.00
2022-08-10T02:13:27.954Z,100.00
2022-08-10T02:16:46.139Z,100.00
2022-08-10T02:20:06.079Z,100.00
2022-08-10T02:23:26.975Z,100.00
2022-08-10T02:26:43.661Z,100.00
2022-08-10T02:30:01.801Z,100.00
2022-08-10T02:33:23.383Z,100.00
2022-08-10T02:36:44.491Z,100.00
2022-08-10T02:40:00.800Z,100.00
2022-08-10T02:45:27.247Z,100.00
2022-08-10T02:46:50.911Z,100.00
2022-08-10T02:50:15.817Z,100.00
2022-08-10T02:53:54.823Z,100.00
2022-08-10T02:57:03.821Z,100.00
2022-08-10T03:00:22.067Z,100.00
2022-08-10T03:03:43.793Z,100.00
2022-08-10T03:07:06.049Z,100.00
2022-08-10T03:10:27.517Z,100.00
2022-08-10T03:13:44.566Z,100.00
2022-08-10T03:17:02.335Z,100.00
2022-08-10T03:20:36.737Z,100.00
2022-08-10T03:23:39.597Z,100.00
2022-08-10T03:26:56.432Z,100.00
2022-08-10T03:30:28.423Z,100.00
2022-08-10T03:33:37.204Z,100.00
2022-08-10T03:36:53.920Z,100.00
2022-08-10T03:40:11.040Z,100.00
2022-08-10T03:43:29.083Z,100.00
2022-08-10T03:46:48.610Z,100.00
2022-08-10T03:50:28.917Z,100.00
2022-08-10T03:54:04.749Z,100.00
2022-08-10T03:56:46.088Z,100.00
2022-08-10T04:00:02.632Z,100.00
2022-08-10T04:03:20.605Z,100.00
2022-08-10T04:06:37.922Z,100.00
2022-08-10T04:09:56.435Z,100.00
2022-08-10T04:13:12.762Z,100.00
2022-08-10T04:16:28.873Z,100.00
2022-08-10T04:19:50.509Z,100.00
2022-08-10T04:23:09.530Z,100.00
2022-08-10T04:26:26.330Z,100.00
2022-08-10T04:29:43.051Z,100.00
2022-08-10T04:33:02.383Z,100.00
2022-08-10T04:36:18.060Z,100.00
2022-08-10T04:39:34.515Z,100.00
2022-08-10T04:42:51.146Z,100.00
2022-08-10T04:46:14.028Z,100.00
2022-08-10T04:49:54.748Z,100.00
2022-08-10T04:52:43.550Z,100.00
2022-08-10T04:55:59.684Z,100.00
2022-08-10T04:59:17.558Z,100.00
2022-08-10T05:02:33.853Z,100.00
2022-08-10T05:05:50.217Z,100.00
2022-08-10T05:09:08.283Z,100.00
2022-08-10T05:12:24.363Z,100.00
2022-08-10T05:15:42.448Z,100.00
2022-08-10T05:18:58.666Z,100.00
2022-08-10T05:22:15.563Z,100.00
2022-08-10T05:25:32.784Z,100.00
2022-08-10T05:28:50.075Z,100.00
2022-08-10T05:32:06.508Z,100.00
2022-08-10T05:35:22.903Z,100.00
2022-08-10T05:38:39.889Z,100.00
2022-08-10T05:42:01.392Z,100.00
2022-08-10T05:45:25.344Z,100.00
2022-08-10T05:48:59.252Z,100.00
2022-08-10T05:51:58.646Z,100.00
2022-08-10T05:55:18.139Z,100.00
2022-08-10T05:58:34.474Z,100.00
2022-08-10T06:02:33.697Z,100.00
2022-08-10T06:05:16.730Z,100.00
2022-08-10T06:08:37.122Z,100.00
2022-08-10T06:12:26.063Z,100.00
2022-08-10T06:15:21.352Z,100.00
2022-08-10T06:18:37.353Z,97.51
2022-08-10T06:22:01.291Z,96.22
2022-08-10T06:26:11.295Z,96.13
2022-08-10T06:28:38.568Z,96.10
2022-08-10T06:32:00.928Z,94.58
2022-08-10T06:35:18.619Z,93.95
2022-08-10T06:38:39.126Z,94.69
2022-08-10T06:42:14.874Z,94.80
2022-08-10T06:45:27.491Z,91.40
2022-08-10T06:48:50.716Z,90.05
2022-08-10T06:52:08.963Z,90.79
2022-08-10T06:55:49.839Z,90.86
2022-08-10T06:58:52.433Z,85.30
2022-08-10T07:02:13.440Z,84.38
2022-08-10T07:05:33.707Z,85.14
2022-08-10T07:08:51.884Z,85.08
2022-08-10T07:12:09.708Z,85.60
2022-08-10T07:15:57.026Z,82.46
2022-08-10T07:18:47.177Z,85.58
2022-08-10T07:22:04.070Z,81.26
2022-08-10T07:25:25.870Z,80.13
2022-08-10T07:28:47.975Z,80.65
2022-08-10T07:32:07.057Z,83.71
2022-08-10T07:35:26.640Z,82.06
2022-08-10T07:38:43.951Z,78.17
2022-08-10T07:42:03.915Z,77.93
2022-08-10T07:45:22.889Z,76.96
2022-08-10T07:48:42.993Z,75.73
2022-08-10T07:52:02.047Z,76.63
2022-08-10T07:56:05.845Z,74.14
2022-08-10T07:58:52.819Z,73.93
2022-08-10T08:02:09.402Z,73.91
2022-08-10T08:05:58.596Z,71.19
2022-08-10T08:08:50.108Z,70.63
2022-08-10T08:12:07.855Z,67.32
2022-08-10T08:16:21.338Z,67.92
2022-08-10T08:19:03.707Z,64.90
2022-08-10T08:24:04.977Z,63.41
2022-08-10T08:25:28.586Z,63.17
2022-08-10T08:28:46.496Z,61.81
2022-08-10T08:32:05.523Z,59.28
2022-08-10T08:35:25.717Z,59.35
2022-08-10T08:38:43.865Z,54.94
2022-08-10T08:42:39.832Z,57.61
2022-08-10T08:46:19.036Z,55.05
2022-08-10T08:50:07.831Z,54.36
2022-08-10T08:54:00.982Z,54.58
2022-08-10T08:56:52.204Z,54.10
2022-08-10T09:00:15.494Z,55.12
2022-08-10T09:04:03.115Z,55.58
2022-08-10T09:08:01.559Z,62.62
2022-08-10T09:11:13.583Z,56.95
2022-08-10T09:14:36.456Z,53.55
2022-08-10T09:18:01.370Z,52.90
2022-08-10T09:21:23.668Z,54.57
2022-08-10T09:24:47.624Z,50.12
2022-08-10T09:28:08.966Z,48.88
2022-08-10T09:31:29.175Z,47.08
2022-08-10T09:36:20.167Z,45.57
2022-08-10T09:38:21.115Z,44.75
2022-08-10T09:41:50.680Z,45.84
2022-08-10T09:45:13.279Z,44.72
2022-08-10T09:48:50.345Z,45.47
2022-08-10T09:52:21.322Z,45.52
2022-08-10T09:56:17.139Z,46.55
2022-08-10T09:59:26.574Z,46.93
2022-08-10T10:02:47.787Z,48.55
2022-08-10T10:06:11.978Z,46.77
2022-08-10T10:09:34.116Z,46.57
2022-08-10T10:12:57.663Z,48.32
2022-08-10T10:16:37.654Z,50.27
2022-08-10T10:20:09.197Z,47.59
2022-08-10T10:23:32.652Z,48.38
2022-08-10T10:26:53.908Z,50.26
2022-08-10T10:30:17.528Z,48.95
2022-08-10T10:33:43.814Z,47.43
2022-08-10T10:37:01.886Z,45.92
2022-08-10T10:40:22.259Z,46.50
2022-08-10T10:43:54.660Z,46.09
2022-08-10T10:47:31.467Z,46.93
2022-08-10T10:50:59.655Z,46.95
2022-08-10T10:54:22.214Z,46.33
2022-08-10T10:57:59.854Z,49.44
2022-08-10T11:01:12.847Z,46.17
2022-08-10T11:04:36.167Z,49.10
2022-08-10T11:07:58.416Z,47.64
2022-08-10T11:12:00.613Z,46.96
2022-08-10T11:14:45.079Z,47.17
2022-08-10T11:18:09.554Z,47.00
2022-08-10T11:21:36.834Z,47.01
2022-08-10T11:25:00.059Z,47.39
2022-08-10T11:28:22.355Z,47.53
2022-08-10T11:31:46.126Z,47.80
2022-08-10T11:35:13.091Z,46.38
2022-08-10T11:39:03.962Z,47.66
2022-08-10T11:42:11.500Z,47.69
2022-08-10T11:45:32.156Z,48.23
2022-08-10T11:48:59.720Z,48.29
2022-08-10T11:52:19.178Z,48.74
2022-08-10T11:55:39.294Z,48.24
2022-08-10T11:59:16.655Z,48.05
2022-08-10T12:02:32.065Z,48.22
2022-08-10T12:05:54.299Z,49.14
2022-08-10T12:10:10.885Z,50.87
2022-08-10T12:12:52.828Z,51.66
2022-08-10T12:16:14.743Z,49.30
2022-08-10T12:19:59.521Z,53.86
2022-08-10T12:22:59.681Z,49.79
2022-08-10T12:26:21.517Z,50.72
2022-08-10T12:29:45.311Z,50.11
2022-08-10T12:33:08.096Z,50.11
2022-08-10T12:36:29.166Z,49.44
2022-08-10T12:39:52.881Z,49.20
2022-08-10T12:44:04.850Z,49.54
2022-08-10T12:46:41.640Z,49.33
2022-08-10T12:50:26.620Z,49.10
2022-08-10T12:53:35.025Z,49.25
2022-08-10T12:56:55.602Z,50.62
2022-08-10T13:00:17.138Z,49.59
2022-08-10T13:04:21.395Z,48.97
2022-08-10T13:06:56.838Z,49.08
2022-08-10T13:10:18.819Z,48.32
2022-08-10T13:13:40.940Z,49.13
2022-08-10T13:16:59.150Z,48.94
2022-08-10T13:20:24.566Z,55.90
2022-08-10T13:23:43.982Z,51.64
2022-08-10T13:27:26.744Z,49.93
2022-08-10T13:30:33.566Z,52.77
2022-08-10T13:34:38.767Z,52.12
2022-08-10T13:37:14.508Z,51.26
2022-08-10T13:40:31.934Z,48.54
2022-08-10T13:43:58.426Z,48.59
2022-08-10T13:47:16.954Z,49.86
2022-08-10T13:50:37.391Z,50.41
2022-08-10T13:53:56.987Z,47.50
2022-08-10T13:57:14.607Z,48.04
2022-08-10T14:00:38.547Z,47.55
2022-08-10T14:03:56.214Z,47.60
2022-08-10T14:07:13.654Z,47.39
2022-08-10T14:11:09.064Z,47.65
2022-08-10T14:13:54.346Z,48.03
2022-08-10T14:17:10.968Z,47.42
2022-08-10T14:20:28.054Z,47.98
2022-08-10T14:23:53.134Z,49.76
2022-08-10T14:27:14.011Z,51.16
2022-08-10T14:30:31.534Z,50.66
2022-08-10T14:33:54.044Z,51.85
2022-08-10T14:37:17.109Z,50.20
2022-08-10T14:40:38.801Z,52.13
2022-08-10T14:44:02.152Z,52.19
2022-08-10T14:47:53.624Z,51.70
2022-08-10T14:50:55.116Z,49.21
2022-08-10T14:54:07.012Z,47.99
2022-08-10T14:58:19.817Z,47.91
2022-08-10T15:00:49.693Z,47.25
2022-08-10T15:04:10.512Z,47.73
2022-08-10T15:07:34.524Z,47.87
2022-08-10T15:10:52.532Z,47.86
2022-08-10T15:14:41.536Z,47.28
2022-08-10T15:17:38.206Z,47.37
2022-08-10T15:20:58.014Z,48.17
2022-08-10T15:24:27.485Z,49.66
2022-08-10T15:27:55.136Z,48.09
2022-08-10T15:31:07.370Z,49.47
2022-08-10T15:34:38.711Z,46.55
2022-08-10T15:38:02.311Z,45.44
2022-08-10T15:41:24.736Z,44.41
2022-08-10T15:44:51.600Z,45.18
2022-08-10T15:48:13.657Z,44.99
2022-08-10T15:51:53.957Z,45.03
2022-08-10T15:55:01.153Z,45.36
2022-08-10T15:58:39.167Z,45.95
2022-08-10T16:02:12.701Z,46.54
2022-08-10T16:05:13.885Z,46.37
2022-08-10T16:08:35.121Z,44.60
2022-08-10T16:11:56.568Z,43.13
2022-08-10T16:15:19.603Z,44.14
2022-08-10T16:18:40.743Z,44.26
2022-08-10T16:22:34.035Z,45.42
2022-08-10T16:25:48.068Z,46.40
2022-08-10T16:28:47.633Z,47.29
2022-08-10T16:32:08.782Z,47.64
2022-08-10T16:35:27.523Z,47.62
2022-08-10T16:38:52.669Z,47.75
2022-08-10T16:42:13.423Z,48.17
2022-08-10T16:45:37.214Z,48.35
2022-08-10T16:48:57.035Z,48.07
2022-08-10T16:52:14.410Z,47.56
2022-08-10T16:55:49.614Z,47.80
2022-08-10T16:58:56.878Z,47.77
2022-08-10T17:02:16.260Z,47.69
2022-08-10T17:06:07.423Z,47.88
2022-08-10T17:09:00.577Z,47.97
2022-08-10T17:12:22.791Z,47.83
2022-08-10T17:15:39.382Z,48.15
2022-08-10T17:18:58.126Z,48.53
2022-08-10T17:22:51.582Z,49.75
2022-08-10T17:26:16.688Z,48.82
2022-08-10T17:29:58.795Z,48.50
2022-08-10T17:33:05.180Z,48.46
2022-08-10T17:36:25.479Z,49.81
2022-08-10T17:39:49.450Z,51.39
2022-08-10T17:43:07.988Z,50.57
2022-08-10T17:46:25.578Z,52.06
2022-08-10T17:49:44.002Z,53.96
2022-08-10T17:53:05.859Z,54.86
2022-08-10T17:56:24.704Z,57.57
2022-08-10T17:59:39.663Z,58.93
2022-08-10T18:02:59.617Z,61.96
2022-08-10T18:06:20.246Z,61.55
2022-08-10T18:09:45.406Z,65.01
2022-08-10T18:13:04.968Z,65.15
2022-08-10T18:16:26.224Z,67.03
2022-08-10T18:19:46.730Z,67.32
2022-08-10T18:23:05.046Z,69.14
2022-08-10T18:26:25.213Z,69.64
2022-08-10T18:29:46.254Z,70.85
2022-08-10T18:33:05.418Z,71.89
2022-08-10T18:36:24.689Z,71.79
2022-08-10T18:39:44.912Z,71.55
2022-08-10T18:43:04.793Z,74.07
2022-08-10T18:46:26.159Z,75.70
2022-08-10T18:49:49.151Z,75.72
2022-08-10T18:53:12.230Z,75.94
2022-08-10T18:56:39.818Z,78.65
2022-08-10T19:00:17.826Z,78.51
2022-08-10T19:03:53.737Z,77.79
2022-08-10T19:07:41.045Z,77.86
2022-08-10T19:11:03.535Z,79.94
2022-08-10T19:14:25.044Z,80.96
2022-08-10T19:18:04.363Z,81.99
2022-08-10T19:21:10.718Z,80.34
2022-08-10T19:24:32.522Z,81.64
2022-08-10T19:28:02.782Z,79.28
2022-08-10T19:31:25.206Z,79.90
2022-08-10T19:34:58.814Z,79.90
2022-08-10T19:38:32.059Z,80.62
2022-08-10T19:41:45.733Z,81.93
2022-08-10T19:45:10.455Z,83.45
2022-08-10T19:48:35.796Z,81.95
2022-08-10T19:52:00.499Z,79.99
2022-08-10T19:55:27.161Z,84.79
2022-08-10T19:58:48.394Z,85.82
2022-08-10T20:02:05.025Z,81.65
2022-08-10T20:05:26.717Z,80.85
2022-08-10T20:08:48.977Z,81.28
2022-08-10T20:12:12.735Z,81.75
2022-08-10T20:15:42.240Z,81.90
2022-08-10T20:19:00.218Z,83.46
2022-08-10T20:22:18.239Z,86.75
2022-08-10T20:25:39.480Z,87.70
2022-08-10T20:29:03.535Z,86.35
2022-08-10T20:32:25.109Z,87.39
2022-08-10T20:35:56.326Z,86.31
2022-08-10T20:39:19.929Z,83.56
2022-08-10T20:42:41.625Z,88.71
2022-08-10T20:46:08.901Z,86.89
2022-08-10T20:49:33.512Z,89.02
2022-08-10T20:52:51.633Z,88.94
2022-08-10T20:56:16.741Z,89.63
2022-08-10T21:00:02.530Z,88.90
2022-08-10T21:03:31.710Z,90.49
2022-08-10T21:07:28.428Z,93.93
2022-08-10T21:10:57.543Z,91.15
2022-08-10T21:14:33.805Z,92.56
2022-08-10T21:18:00.176Z,94.76
2022-08-10T21:21:41.049Z,95.25
2022-08-10T21:25:00.172Z,94.66
2022-08-10T21:28:29.043Z,94.46
2022-08-10T21:32:07.784Z,95.06
2022-08-10T21:35:39.133Z,92.82
2022-08-10T21:39:01.601Z,94.56
2022-08-10T21:42:36.802Z,94.93
2022-08-10T21:46:13.785Z,94.18
2022-08-10T21:49:51.298Z,95.23
2022-08-10T21:53:44.697Z,96.31
2022-08-10T21:57:04.418Z,97.49
2022-08-10T22:04:26.609Z,100.00
2022-08-10T22:08:00.333Z,99.13
2022-08-10T22:15:08.395Z,100.00
2022-08-10T22:19:01.932Z,100.00
2022-08-10T22:22:28.227Z,99.52
2022-08-10T22:26:04.450Z,100.00
2022-08-10T22:29:42.418Z,99.48
2022-08-10T22:31:28.639Z,100.00
2022-08-10T22:33:21.977Z,100.00
2022-08-10T22:37:14.052Z,100.00
2022-08-10T22:40:46.646Z,100.00
2022-08-10T22:44:23.082Z,100.00
2022-08-10T22:47:55.242Z,100.00
2022-08-10T22:51:17.072Z,100.00
2022-08-10T22:54:52.996Z,100.00
2022-08-10T22:58:25.793Z,100.00
2022-08-10T23:02:09.008Z,100.00
2022-08-10T23:05:15.237Z,100.00
2022-08-10T23:08:34.830Z,100.00
2022-08-10T23:11:55.458Z,100.00
2022-08-10T23:15:30.558Z,100.00
2022-08-10T23:19:06.070Z,100.00
2022-08-10T23:22:27.526Z,100.00
2022-08-10T23:25:57.235Z,100.00
2022-08-10T23:29:13.941Z,100.00
2022-08-10T23:32:38.453Z,100.00
2022-08-10T23:36:05.647Z,100.00
2022-08-10T23:39:24.467Z,100.00
2022-08-10T23:42:43.641Z,100.00
2022-08-10T23:46:04.413Z,100.00
2022-08-10T23:49:26.837Z,100.00
2022-08-10T23:52:44.800Z,100.00
2022-08-10T23:56:10.449Z,100.00
2022-08-10T23:59:29.634Z,100.00
